METAR Data
IDs: Format: Raw Decoded Include TAF

Data at: 0911 UTC 26 Jan 2020

KRAC 260853Z AUTO 27007KT 10SM OVC010 01/M01 A2988 RMK AO2 SLP126 T00111006 53003
KRAC 260814Z AUTO 27008KT 10SM OVC011 02/M01 A2988 RMK AO2 T00171006
KRAC 260753Z AUTO 27007KT 10SM OVC009 02/M01 A2988 RMK AO2 CIG 007V011 SLP124 T00171006
KRAC 260653Z AUTO 28005KT 10SM OVC009 02/M01 A2988 RMK AO2 SLP123 T00171006
KRAC 260553Z AUTO 27007KT 10SM OVC009 02/M01 A2988 RMK AO2 SLP123 T00171006 10017 20011 400220006 53005
KRAC 260453Z AUTO 27007KT 10SM OVC009 01/M01 A2987 RMK AO2 SLP121 T00111006
KRAC 260433Z AUTO 27007KT 10SM OVC009 01/M01 A2987 RMK AO2 T00111006
KRAC 260353Z AUTO 28005KT 10SM BKN013 OVC041 01/M01 A2986 RMK AO2 SLP118 T00111006
KRAC 260253Z AUTO 27004KT 10SM OVC011 01/M01 A2986 RMK AO2 SLP118 T00111006 51007
KRAC 260153Z AUTO 28005KT 10SM OVC012 02/M01 A2986 RMK AO2 SLP117 T00171006
KRAC 260053Z AUTO 28004KT 10SM OVC014 02/M01 A2985 RMK AO2 SLP113 T00171011
KRAC 260019Z AUTO 29005KT 10SM OVC014 02/M01 A2984 RMK AO2 T00171011
KRAC 252353Z AUTO 31005KT 10SM OVC015 02/M01 A2984 RMK AO2 SLP111 60001 T00171011 10022 20011 53009
KRAC 252253Z AUTO 31006KT 10SM OVC015 02/M01 A2983 RMK AO2 SLP106 T00171011
KRAC 252241Z AUTO 30006KT 10SM BKN016 OVC050 02/M01 A2982 RMK AO2 T00171011
KRAC 252225Z AUTO 30006KT 10SM FEW019 OVC050 02/M01 A2982 RMK AO2 T00171011
KRAC 252218Z AUTO 30006KT 10SM SCT014 BKN021 OVC055 02/M01 A2981 RMK AO2 T00171011
KRAC 252153Z AUTO 31006KT 10SM BKN012 OVC019 02/M01 A2981 RMK AO2 SLP101 T00171011
KRAC 252151Z AUTO 30006KT 10SM BKN012 OVC019 02/M01 A2981 RMK AO2
KRAC 252053Z AUTO 29006KT 10SM SCT012 BKN018 OVC055 02/M01 A2980 RMK AO2 SLP096 60001 T00221006 53001
KRAC 252051Z AUTO 29008KT 10SM SCT012 BKN018 OVC055 02/M01 A2980 RMK AO2
KRAC 252026Z AUTO 28010G16KT 10SM FEW013 FEW024 OVC050 02/M01 A2979 RMK AO2 T00221006
KRAC 252013Z AUTO 28006KT 10SM SCT011 BKN024 OVC050 02/00 A2979 RMK AO2 T00220000
KRAC 251953Z AUTO 27006KT 10SM BKN012 OVC018 02/M01 A2979 RMK AO2 SLP094 T00171006
KRAC 251937Z AUTO 29007KT 10SM BKN010 BKN015 OVC019 02/00 A2979 RMK AO2 CIG 006V013 T00170000
KRAC 251923Z AUTO 28006KT 10SM BKN008 OVC016 02/00 A2979 RMK AO2 CIG 006V013 T00170000
KRAC 251913Z AUTO 29007KT 10SM OVC010 02/M01 A2979 RMK AO2 CIG 006V014 T00171006
KRAC 251853Z AUTO 29010KT 10SM BKN007 OVC031 02/M01 A2979 RMK AO2 UPB29E36SNE29 CIG 004V011 SLP095 P0001 T00171006
KRAC 251816Z AUTO 29007KT 4SM -SN BR BKN005 BKN021 OVC029 01/00 A2979 RMK AO2 P0001 T00110000
KRAC 251805Z AUTO 28007KT 2 1/2SM -SN BR BKN005 OVC019 01/00 A2980 RMK AO2 P0001 T00110000
KRAC 251753Z AUTO 27006KT 1 1/2SM -SN BR BKN005 OVC015 01/00 A2980 RMK AO2 SLP096 P0003 60009 T00110000 10011 20006 50000
KRAC 251724Z AUTO 28003KT 1SM -SN BR BKN005 OVC010 01/00 A2980 RMK AO2 P0002 T00060000
KRAC 251707Z AUTO 29004KT 3/4SM -SN BR BKN005 OVC010 01/00 A2981 RMK AO2 P0001 T00060000
KRAC 251653Z AUTO 29004KT 1SM -SN BR BKN005 OVC011 01/00 A2981 RMK AO2 SLP101 P0003 T00060000
KRAC 251648Z AUTO 29005KT 1SM -SN BR BKN005 OVC011 01/00 A2981 RMK AO2 P0003
KRAC 251640Z AUTO 28003KT 3/4SM -SN BR BKN005 OVC013 01/00 A2981 RMK AO2 P0003 T00060000
KRAC 251628Z AUTO 28004KT 1SM -SN BR BKN005 OVC015 01/M01 A2981 RMK AO2 P0002 T00061006
KRAC 251602Z AUTO 28004KT 1 1/4SM -SN BR BKN004 OVC022 01/M01 A2980 RMK AO2 P0001 T00061006
KRAC 251553Z AUTO 27005KT 1 1/4SM -SN BR BKN005 OVC022 01/M01 A2980 RMK AO2 SLP097 P0002 T00061006
KRAC 251453Z AUTO 27005KT 1 1/2SM -SN BR BKN005 BKN029 OVC048 01/M01 A2979 RMK AO2 SNE02B28 SLP094 P0001 60001 T00061006 51004
KRAC 251449Z AUTO 27004KT 1 3/4SM -SN BR SCT005 BKN031 OVC048 01/M01 A2979 RMK AO2 SNE02B28 P0001
KRAC 251440Z AUTO 28005KT 2SM -SN BR SCT005 SCT026 OVC047 01/M01 A2979 RMK AO2 SNE02B28 P0001 T00061006
KRAC 251411Z AUTO 28005KT 3SM BR FEW004 SCT024 OVC046 01/M01 A2979 RMK AO2 SNE02 P0000 T00061006
KRAC 251404Z AUTO 27005KT 2 1/2SM BR SCT004 BKN026 OVC046 01/M01 A2979 RMK AO2 SNE02 P0000 T00061006
KRAC 251353Z AUTO 27005KT 1 1/2SM -SN BR SCT004 OVC024 01/M01 A2979 RMK AO2 SNB33 SLP093 P0000 T00061006
KRAC 251338Z AUTO 27004KT 1 3/4SM -SN BR SCT006 OVC026 01/M01 A2978 RMK AO2 SNB33 P0000 T00061006
KRAC 251253Z AUTO 27004KT 6SM BR OVC007 01/M01 A2977 RMK AO2 SLP088 T00061006
KRAC 251210Z AUTO 27003KT 7SM BKN007 OVC021 01/M01 A2977 RMK AO2 T00061006
KRAC 251201Z AUTO 27004KT 7SM SCT007 OVC021 01/M01 A2976 RMK AO2 T00061006
KRAC 251153Z AUTO 27003KT 7SM BKN007 OVC021 01/M01 A2976 RMK AO2 SLP084 60001 70030 T00061006 10006 20006 55000
KRAC 251121Z AUTO 28003KT 5SM BR OVC006 01/M01 A2976 RMK AO2 T00061006
KRAC 251053Z AUTO 29003KT 4SM BR OVC004 01/M01 A2975 RMK AO2 SLP081 T00061006
KRAC 251022Z AUTO 28003KT 5SM BR OVC004 01/M01 A2976 RMK AO2 T00061006
KRAC 251011Z AUTO 28004KT 5SM BR OVC005 01/M01 A2976 RMK AO2 T00061006
KRAC 250953Z AUTO 27003KT 5SM BR OVC004 01/M01 A2975 RMK AO2 SLP081 T00061006
KRAC 250853Z AUTO 27004KT 4SM BR OVC003 01/M01 A2976 RMK AO2 SLP085 60001 T00061006 58001
KRAC 250753Z AUTO 27004KT 4SM BR OVC004 01/M01 A2976 RMK AO2 SLP085 T00061006
KRAC 250653Z AUTO 00000KT 5SM BR OVC004 01/M01 A2977 RMK AO2 SLP087 P0001 T00061006
KRAC 250553Z AUTO 31004KT 5SM BR OVC004 01/M01 A2977 RMK AO2 SNE26 SLP086 P0001 60010 T00061006 10017 20006 400280006 56007
KRAC 250514Z AUTO 30003KT 3SM -SN BR OVC005 01/M01 A2977 RMK AO2 P0001 T00061006
KRAC 250501Z AUTO 30003KT 2SM -SN BR OVC004 01/M01 A2977 RMK AO2 P0000 T00061006
KRAC 250453Z AUTO 29003KT 1 1/2SM -SN BR OVC005 01/M01 A2977 RMK AO2 SLP087 P0001 T00061006
KRAC 250353Z AUTO 33004KT 1SM -SN BR VV006 01/M01 A2978 RMK AO2 SLP090 P0001 T00061006
KRAC 250334Z AUTO 32004KT 1 1/4SM -SN BR FEW004 OVC009 01/M01 A2978 RMK AO2 P0001 T00061006
KRAC 250253Z AUTO 32004KT 1 1/2SM -SN BR FEW007 OVC011 01/M01 A2979 RMK AO2 SLP094 P0001 60007 T00061006 58003
KRAC 250207Z AUTO 31004KT 1 3/4SM -SN BR SCT008 OVC013 01/M01 A2980 RMK AO2 P0000 T00061006
KRAC 250153Z AUTO 32003KT 2SM -SN BR BKN006 OVC011 01/00 A2981 RMK AO2 RAE35SNB35 SLP099 P0005 T00060000
KRAC 250107Z AUTO 31004KT 2 1/2SM -RA BR OVC006 01/01 A2981 RMK AO2 P0001 T00110006
KRAC 250053Z AUTO 33003KT 3SM -RA BR OVC006 02/01 A2981 RMK AO2 CIG 004V009 SLP100 P0001 T00170006
KRAC 242353Z AUTO 36004KT 9SM -RA OVC009 02/01 A2980 RMK AO2 SLP097 P0002 60016 T00170006 10028 20011 58005
KRAC 242253Z AUTO 07005KT 6SM -RA BR BKN007 OVC011 02/01 A2981 RMK AO2 CIG 005V010 SLP101 P0006 T00170011
KRAC 242216Z AUTO 07005KT 3SM -RA BR SCT003 BKN007 OVC013 02/02 A2980 RMK AO2 P0003 T00220017
KRAC 242210Z AUTO 08005KT 2 1/2SM -RA BR BKN003 BKN007 OVC013 02/02 A2981 RMK AO2 P0002 T00220017
KRAC 242158Z AUTO 09005KT 2 1/2SM -RA BR SCT003 BKN007 OVC015 02/02 A2981 RMK AO2 P0001 T00220017
KRAC 242153Z AUTO 08006KT 1 3/4SM RA BR BKN003 BKN009 OVC015 03/02 A2981 RMK AO2 SLP101 P0007 T00280017
KRAC 242145Z AUTO 08004KT 1 1/2SM -RA BR BKN004 BKN007 OVC012 03/02 A2981 RMK AO2 P0006 T00280017
KRAC 242134Z AUTO 09005KT 2SM -RA BR BKN004 OVC008 03/02 A2981 RMK AO2 P0004 T00280017
KRAC 242124Z AUTO 09006KT 1 1/2SM -RA BR OVC002 03/02 A2981 RMK AO2 P0003 T00280017